Time;durP1;ratioP1;P1;durP2;ratioP2;P2;SDS_P1;SDS_P2;PMS_P1;PMS_P2;Temp;Humidity;BMP_temperature;BMP_pressure;BME280_temperature;BME280_humidity;BME280_pressure;Samples;Min_cycle;Max_cycle;Signal;HPM_P1;HPM_P2
2022/05/22 00:00:12;;;;;;;9.83;4.00;;;;;;;;;;5096012;28;20421;-77
2022/05/22 00:02:38;;;;;;;4.50;3.13;;;;;;;;;;5096065;28;20403;-77
2022/05/22 00:05:04;;;;;;;6.80;3.60;;;;;;;;;;5095552;28;20795;-75
2022/05/22 00:07:30;;;;;;;12.47;4.50;;;;;;;;;;5096162;28;20406;-75
2022/05/22 00:09:56;;;;;;;9.43;4.07;;;;;;;;;;5096039;28;20469;-75
2022/05/22 00:12:22;;;;;;;5.00;4.23;;;;;;;;;;5096013;28;20728;-75
2022/05/22 00:14:48;;;;;;;7.47;4.50;;;;;;;;;;5094320;28;20439;-76
2022/05/22 00:17:14;;;;;;;13.47;4.83;;;;;;;;;;5095828;28;20860;-76
2022/05/22 00:19:41;;;;;;;7.90;4.37;;;;;;;;;;5095766;28;20779;-77
2022/05/22 00:22:07;;;;;;;8.80;4.43;;;;;;;;;;5095772;28;20414;-76
2022/05/22 00:24:33;;;;;;;5.80;4.23;;;;;;;;;;5094804;28;20987;-75
2022/05/22 00:27:02;;;;;;;8.73;3.90;;;;;;;;;;5093737;28;21217;-75
2022/05/22 00:29:28;;;;;;;8.10;3.60;;;;;;;;;;5095484;28;20469;-76
2022/05/22 00:31:54;;;;;;;13.13;4.87;;;;;;;;;;5095380;28;20429;-74
2022/05/22 00:34:20;;;;;;;7.10;4.17;;;;;;;;;;5095100;28;20763;-76
2022/05/22 00:36:46;;;;;;;7.03;4.30;;;;;;;;;;5095457;28;20398;-76
2022/05/22 00:39:12;;;;;;;10.13;4.17;;;;;;;;;;5095201;28;20398;-76
2022/05/22 00:41:38;;;;;;;7.20;4.00;;;;;;;;;;5095324;28;20471;-75
2022/05/22 00:44:04;;;;;;;7.17;4.63;;;;;;;;;;5093580;28;20446;-75
2022/05/22 00:46:31;;;;;;;11.50;5.33;;;;;;;;;;5095229;28;20406;-77
2022/05/22 00:49:01;;;;;;;9.73;4.60;;;;;;;;;;5095124;28;20467;-76
2022/05/22 00:51:35;;;;;;;6.50;5.35;;;;;;;;;;5095027;28;20410;-75
2022/05/22 00:54:02;;;;;;;11.53;5.47;;;;;;;;;;5093344;28;20672;-76
2022/05/22 00:56:35;;;;;;;10.03;6.13;;;;;;;;;;5095311;28;20415;-75
2022/05/22 00:59:01;;;;;;;13.00;6.63;;;;;;;;;;5095506;28;20415;-75
2022/05/22 01:01:27;;;;;;;13.90;5.80;;;;;;;;;;5095342;28;20176;-75
2022/05/22 01:03:55;;;;;;;11.03;6.20;;;;;;;;;;5094952;28;20423;-77
2022/05/22 01:06:24;;;;;;;10.50;5.30;;;;;;;;;;5095198;28;20751;-77
2022/05/22 01:08:50;;;;;;;8.70;5.23;;;;;;;;;;5095178;28;20811;-75
2022/05/22 01:11:21;;;;;;;7.73;5.33;;;;;;;;;;5093818;28;20406;-77
2022/05/22 01:13:52;;;;;;;6.73;4.70;;;;;;;;;;5094561;28;20489;-75
2022/05/22 01:16:19;;;;;;;6.05;4.78;;;;;;;;;;5095006;28;20967;-77
2022/05/22 01:18:45;;;;;;;9.85;5.97;;;;;;;;;;5094832;28;20586;-76
2022/05/22 01:21:13;;;;;;;9.03;5.47;;;;;;;;;;5095092;28;20177;-77
2022/05/22 01:23:39;;;;;;;11.18;5.65;;;;;;;;;;5094223;28;20399;-77
2022/05/22 01:26:05;;;;;;;8.17;5.70;;;;;;;;;;5094855;28;20183;-77
2022/05/22 01:28:31;;;;;;;12.13;6.22;;;;;;;;;;5094683;28;20422;-75
2022/05/22 01:30:57;;;;;;;11.68;5.80;;;;;;;;;;5094556;28;20177;-75
2022/05/22 01:33:23;;;;;;;10.43;5.80;;;;;;;;;;5094205;28;20671;-76
2022/05/22 01:35:49;;;;;;;6.97;5.00;;;;;;;;;;5094386;28;20273;-77
2022/05/22 01:38:16;;;;;;;10.60;6.07;;;;;;;;;;5094424;28;20414;-76
2022/05/22 01:40:42;;;;;;;14.88;6.18;;;;;;;;;;5094415;28;20449;-77
2022/05/22 01:43:08;;;;;;;11.07;6.00;;;;;;;;;;5092763;28;20238;-77
2022/05/22 01:45:35;;;;;;;9.32;5.90;;;;;;;;;;5094076;28;20525;-76
2022/05/22 01:48:02;;;;;;;13.60;7.35;;;;;;;;;;5094196;28;20177;-74
2022/05/22 01:50:28;;;;;;;15.23;6.90;;;;;;;;;;5094149;28;20204;-77
2022/05/22 01:52:54;;;;;;;12.10;7.43;;;;;;;;;;5093868;28;20587;-76
2022/05/22 01:55:20;;;;;;;8.52;6.78;;;;;;;;;;5093982;28;20423;-76
2022/05/22 01:57:46;;;;;;;11.43;6.70;;;;;;;;;;5094118;28;20184;-76
2022/05/22 02:00:14;;;;;;;12.57;6.55;;;;;;;;;;5094068;28;20434;-76
2022/05/22 02:02:40;;;;;;;12.00;7.15;;;;;;;;;;5094058;28;20644;-75
2022/05/22 02:05:06;;;;;;;11.50;6.50;;;;;;;;;;5093653;28;20210;-76
2022/05/22 02:10:17;;;;;;;11.35;6.78;;;;;;;;;;5093941;28;20261;-75
2022/05/22 02:12:43;;;;;;;8.53;7.40;;;;;;;;;;5094074;28;20173;-76
2022/05/22 02:15:10;;;;;;;10.43;7.43;;;;;;;;;;5093602;28;20755;-75
2022/05/22 02:17:36;;;;;;;8.75;6.00;;;;;;;;;;5093785;28;20395;-77
2022/05/22 02:20:02;;;;;;;18.30;9.30;;;;;;;;;;5093782;28;20223;-75
2022/05/22 02:22:27;;;;;;;10.45;7.15;;;;;;;;;;5093836;28;20773;-76
2022/05/22 02:24:54;;;;;;;17.57;8.50;;;;;;;;;;5093420;28;20229;-75
2022/05/22 02:27:21;;;;;;;10.00;7.20;;;;;;;;;;5093641;28;20926;-75
2022/05/22 02:29:47;;;;;;;12.27;6.80;;;;;;;;;;5093534;28;20215;-76
2022/05/22 02:32:13;;;;;;;9.98;6.35;;;;;;;;;;5093262;28;20286;-76
2022/05/22 02:34:39;;;;;;;12.02;7.45;;;;;;;;;;5093090;28;20223;-75
2022/05/22 02:37:06;;;;;;;15.67;7.30;;;;;;;;;;5093777;28;20176;-75
2022/05/22 02:39:32;;;;;;;11.77;7.70;;;;;;;;;;5093523;28;20414;-75
2022/05/22 02:42:05;;;;;;;11.32;7.90;;;;;;;;;;5092090;28;20226;-76
2022/05/22 02:44:32;;;;;;;13.57;8.43;;;;;;;;;;5092922;28;20599;-78
2022/05/22 02:46:58;;;;;;;12.85;8.60;;;;;;;;;;5093347;28;20694;-76
2022/05/22 02:49:24;;;;;;;17.17;7.50;;;;;;;;;;5092635;28;20204;-75
2022/05/22 02:51:49;;;;;;;11.10;7.80;;;;;;;;;;5093260;28;20480;-76
2022/05/22 02:54:15;;;;;;;13.70;7.70;;;;;;;;;;5092664;28;20431;-75
2022/05/22 02:56:42;;;;;;;12.53;8.70;;;;;;;;;;5093129;28;20936;-75
2022/05/22 02:59:08;;;;;;;15.98;7.07;;;;;;;;;;5093199;28;20403;-76
2022/05/22 03:01:34;;;;;;;8.90;7.05;;;;;;;;;;5093288;28;20169;-77
2022/05/22 03:04:00;;;;;;;11.63;7.43;;;;;;;;;;5092707;28;20196;-77
2022/05/22 03:06:38;;;;;;;10.00;7.27;;;;;;;;;;5091869;28;20939;-77
2022/05/22 03:09:04;;;;;;;11.88;7.50;;;;;;;;;;5093240;28;20962;-76
2022/05/22 03:11:30;;;;;;;11.10;7.80;;;;;;;;;;5093327;28;20200;-76
2022/05/22 03:13:56;;;;;;;11.83;7.67;;;;;;;;;;5091612;28;20582;-74
2022/05/22 03:16:22;;;;;;;11.47;8.50;;;;;;;;;;5093038;28;20416;-74
2022/05/22 03:18:48;;;;;;;11.50;8.57;;;;;;;;;;5092898;28;20405;-75
2022/05/22 03:21:14;;;;;;;13.20;8.07;;;;;;;;;;5093026;28;20464;-76
2022/05/22 03:23:40;;;;;;;9.10;8.20;;;;;;;;;;5091166;28;20530;-76
2022/05/22 03:26:06;;;;;;;11.32;8.98;;;;;;;;;;5091877;28;20493;-77
2022/05/22 03:28:32;;;;;;;11.80;9.18;;;;;;;;;;5092984;28;20621;-75
2022/05/22 03:30:58;;;;;;;11.52;8.52;;;;;;;;;;5091503;28;20273;-76
2022/05/22 03:33:24;;;;;;;13.30;8.87;;;;;;;;;;5092600;28;20200;-76
2022/05/22 03:35:50;;;;;;;10.33;8.80;;;;;;;;;;5093068;28;20458;-76
2022/05/22 03:38:17;;;;;;;11.53;8.20;;;;;;;;;;5092835;28;20410;-74
2022/05/22 03:40:45;;;;;;;12.38;9.13;;;;;;;;;;5091419;28;20407;-75
2022/05/22 03:43:12;;;;;;;14.90;9.48;;;;;;;;;;5092504;28;20172;-75
2022/05/22 03:45:38;;;;;;;14.23;9.18;;;;;;;;;;5092725;28;20196;-76
2022/05/22 03:48:04;;;;;;;14.35;9.68;;;;;;;;;;5092759;28;20663;-76
2022/05/22 03:50:30;;;;;;;15.23;9.15;;;;;;;;;;5091231;28;20205;-74
2022/05/22 03:52:56;;;;;;;10.43;8.65;;;;;;;;;;5092182;28;20181;-75
2022/05/22 03:55:22;;;;;;;17.98;9.68;;;;;;;;;;5091395;28;20199;-75
2022/05/22 03:57:49;;;;;;;13.05;9.90;;;;;;;;;;5092612;28;20188;-74
2022/05/22 04:00:16;;;;;;;17.15;9.55;;;;;;;;;;5094582;28;20759;-76
2022/05/22 04:02:43;;;;;;;16.02;10.50;;;;;;;;;;5096332;28;20173;-76
2022/05/22 04:05:09;;;;;;;13.85;9.43;;;;;;;;;;5094822;28;20215;-75
2022/05/22 04:07:42;;;;;;;13.77;9.80;;;;;;;;;;5096202;28;20173;-76
2022/05/22 04:10:09;;;;;;;12.60;9.10;;;;;;;;;;5096212;28;20206;-77
2022/05/22 04:12:36;;;;;;;13.98;9.80;;;;;;;;;;5096491;28;20251;-75
2022/05/22 04:15:02;;;;;;;14.40;9.60;;;;;;;;;;5095522;28;20664;-75
2022/05/22 04:17:29;;;;;;;15.70;10.15;;;;;;;;;;5096342;28;20245;-76
2022/05/22 04:19:55;;;;;;;14.55;9.18;;;;;;;;;;5094687;28;20234;-74
2022/05/22 04:22:21;;;;;;;14.00;9.60;;;;;;;;;;5096116;28;20180;-74
2022/05/22 04:27:31;;;;;;;11.75;8.40;;;;;;;;;;5096322;28;20463;-76
2022/05/22 04:29:57;;;;;;;16.67;9.63;;;;;;;;;;5095788;28;20252;-75
2022/05/22 04:32:23;;;;;;;13.63;8.80;;;;;;;;;;5095619;28;20604;-75
2022/05/22 04:34:49;;;;;;;9.60;7.57;;;;;;;;;;5095265;28;20427;-76
2022/05/22 04:37:15;;;;;;;14.70;7.80;;;;;;;;;;5095692;28;20414;-75
2022/05/22 04:39:41;;;;;;;13.60;6.90;;;;;;;;;;5095738;28;20414;-76
2022/05/22 04:42:07;;;;;;;12.10;8.00;;;;;;;;;;5095731;28;20414;-74
2022/05/22 04:44:33;;;;;;;11.80;7.33;;;;;;;;;;5095180;28;20438;-78
2022/05/22 04:47:00;;;;;;;8.85;7.10;;;;;;;;;;5095459;28;20411;-76
2022/05/22 04:49:26;;;;;;;10.65;7.20;;;;;;;;;;5094050;28;20206;-76
2022/05/22 04:51:52;;;;;;;10.10;7.70;;;;;;;;;;5095392;28;20318;-76
2022/05/22 04:54:18;;;;;;;11.77;6.97;;;;;;;;;;5094941;28;20534;-74
2022/05/22 04:56:44;;;;;;;7.60;6.63;;;;;;;;;;5095270;28;20490;-75
2022/05/22 04:59:10;;;;;;;9.80;6.60;;;;;;;;;;5094179;28;20417;-75
2022/05/22 05:01:36;;;;;;;11.75;7.07;;;;;;;;;;5095128;28;20453;-75
2022/05/22 05:04:02;;;;;;;9.67;6.47;;;;;;;;;;5094888;28;20200;-75
2022/05/22 05:06:30;;;;;;;8.33;6.70;;;;;;;;;;5095313;28;20418;-76
2022/05/22 05:08:56;;;;;;;9.77;5.93;;;;;;;;;;5095416;28;20510;-77
2022/05/22 05:11:22;;;;;;;12.70;6.03;;;;;;;;;;5094554;28;20708;-75
2022/05/22 05:13:48;;;;;;;8.53;5.80;;;;;;;;;;5093487;28;20212;-76
2022/05/22 05:16:14;;;;;;;8.10;6.27;;;;;;;;;;5095041;28;20450;-75
2022/05/22 05:18:40;;;;;;;7.27;5.13;;;;;;;;;;5093741;28;20410;-75
2022/05/22 05:21:08;;;;;;;9.93;5.50;;;;;;;;;;5095051;28;20415;-76
2022/05/22 05:23:34;;;;;;;5.20;4.70;;;;;;;;;;5094403;28;20405;-75
2022/05/22 05:26:00;;;;;;;7.27;5.23;;;;;;;;;;5094744;28;20181;-76
2022/05/22 05:28:26;;;;;;;9.23;5.67;;;;;;;;;;5094603;28;20870;-76
2022/05/22 05:30:53;;;;;;;8.95;5.60;;;;;;;;;;5094712;28;20512;-75
2022/05/22 05:33:19;;;;;;;5.93;5.17;;;;;;;;;;5094130;28;20762;-77
2022/05/22 05:35:45;;;;;;;8.73;5.23;;;;;;;;;;5094296;28;20843;-76
2022/05/22 05:38:11;;;;;;;8.53;5.20;;;;;;;;;;5094386;28;20407;-76
2022/05/22 05:40:37;;;;;;;6.77;4.47;;;;;;;;;;5093069;28;20507;-74
2022/05/22 05:43:03;;;;;;;6.07;5.43;;;;;;;;;;5093989;28;20418;-75
2022/05/22 05:45:30;;;;;;;7.50;5.23;;;;;;;;;;5094131;28;20729;-75
2022/05/22 05:47:57;;;;;;;8.53;4.67;;;;;;;;;;5094075;28;20429;-75
2022/05/22 05:50:25;;;;;;;10.90;5.27;;;;;;;;;;5094052;28;20481;-76
2022/05/22 05:52:52;;;;;;;5.97;4.70;;;;;;;;;;5094002;28;20915;-77
2022/05/22 05:55:18;;;;;;;6.00;5.40;;;;;;;;;;5092634;28;20484;-76
2022/05/22 05:57:45;;;;;;;9.50;5.73;;;;;;;;;;5093748;28;20406;-75
2022/05/22 06:00:12;;;;;;;8.23;5.10;;;;;;;;;;5093869;28;20415;-77
2022/05/22 06:02:38;;;;;;;12.03;5.10;;;;;;;;;;5093856;28;20403;-75
2022/05/22 06:05:05;;;;;;;10.70;4.70;;;;;;;;;;5093550;28;20488;-75
2022/05/22 06:07:31;;;;;;;6.50;3.97;;;;;;;;;;5093720;28;20428;-76
2022/05/22 06:09:58;;;;;;;8.53;4.60;;;;;;;;;;5093654;28;20881;-75
2022/05/22 06:12:24;;;;;;;7.20;5.03;;;;;;;;;;5093678;28;20430;-74
2022/05/22 06:14:50;;;;;;;5.20;4.47;;;;;;;;;;5093313;28;20792;-75
2022/05/22 06:17:16;;;;;;;6.30;4.97;;;;;;;;;;5093650;28;20464;-75
2022/05/22 06:19:54;;;;;;;10.70;4.27;;;;;;;;;;5092166;28;20411;-74
2022/05/22 06:22:20;;;;;;;10.00;4.73;;;;;;;;;;5092342;28;20945;-75
2022/05/22 06:24:46;;;;;;;7.70;4.67;;;;;;;;;;5092308;28;20435;-76
2022/05/22 06:27:12;;;;;;;8.67;5.30;;;;;;;;;;5093540;28;20723;-75
2022/05/22 06:29:39;;;;;;;7.87;5.00;;;;;;;;;;5093271;28;20794;-77
2022/05/22 06:32:06;;;;;;;8.83;4.90;;;;;;;;;;5093071;28;20437;-75
2022/05/22 06:34:35;;;;;;;7.53;4.00;;;;;;;;;;5093024;28;20560;-74
2022/05/22 06:37:02;;;;;;;4.93;3.33;;;;;;;;;;5093369;28;20497;-76
2022/05/22 06:42:34;;;;;;;8.77;4.20;;;;;;;;;;5092953;28;20380;-75
2022/05/22 06:45:03;;;;;;;8.30;3.67;;;;;;;;;;5092776;28;20779;-75
2022/05/22 06:47:30;;;;;;;6.60;3.57;;;;;;;;;;5093117;28;20751;-75
2022/05/22 06:49:57;;;;;;;9.73;4.00;;;;;;;;;;5092917;28;20950;-74
2022/05/22 06:52:24;;;;;;;6.40;4.00;;;;;;;;;;5092884;28;20407;-75
2022/05/22 06:54:50;;;;;;;5.77;3.30;;;;;;;;;;5092626;28;20899;-74
2022/05/22 06:57:17;;;;;;;7.40;3.57;;;;;;;;;;5093021;28;20407;-75
2022/05/22 06:59:43;;;;;;;6.57;4.30;;;;;;;;;;5092917;28;20408;-76
2022/05/22 07:02:09;;;;;;;9.90;4.60;;;;;;;;;;5092733;28;20406;-75
2022/05/22 07:04:35;;;;;;;9.77;4.30;;;;;;;;;;5092413;28;20405;-75
2022/05/22 07:07:01;;;;;;;5.20;4.20;;;;;;;;;;5091525;28;20414;-74
2022/05/22 07:09:27;;;;;;;7.47;4.10;;;;;;;;;;5092761;28;20461;-75
2022/05/22 07:11:59;;;;;;;8.57;5.27;;;;;;;;;;5093001;28;20413;-75
2022/05/22 07:14:25;;;;;;;11.57;5.80;;;;;;;;;;5092226;28;20564;-74
2022/05/22 07:16:51;;;;;;;8.87;5.10;;;;;;;;;;5092862;28;20407;-75
2022/05/22 07:19:18;;;;;;;9.50;5.33;;;;;;;;;;5092655;28;20902;-76
2022/05/22 07:21:45;;;;;;;7.30;4.57;;;;;;;;;;5092665;28;20415;-76
2022/05/22 07:24:11;;;;;;;9.00;4.60;;;;;;;;;;5092286;28;20462;-75
2022/05/22 07:26:37;;;;;;;9.43;4.90;;;;;;;;;;5092409;28;20454;-76
2022/05/22 07:29:03;;;;;;;8.30;4.23;;;;;;;;;;5092508;28;20870;-75
2022/05/22 07:31:30;;;;;;;8.73;4.80;;;;;;;;;;5092399;28;20426;-75
2022/05/22 07:33:56;;;;;;;5.10;4.20;;;;;;;;;;5091243;28;20480;-75
2022/05/22 07:36:22;;;;;;;5.57;4.43;;;;;;;;;;5096383;28;20403;-77
2022/05/22 07:38:48;;;;;;;9.30;4.83;;;;;;;;;;5096511;28;20481;-76
2022/05/22 07:41:15;;;;;;;6.97;4.90;;;;;;;;;;5095199;28;20415;-75
2022/05/22 07:43:41;;;;;;;14.27;5.60;;;;;;;;;;5096008;28;20485;-78
2022/05/22 07:46:08;;;;;;;9.37;6.07;;;;;;;;;;5096531;28;20827;-75
2022/05/22 07:48:34;;;;;;;8.83;4.33;;;;;;;;;;5094939;28;20816;-76
2022/05/22 07:51:02;;;;;;;8.03;4.53;;;;;;;;;;5096037;28;20440;-77
2022/05/22 07:53:28;;;;;;;6.07;4.33;;;;;;;;;;5095934;28;20383;-76
2022/05/22 07:55:54;;;;;;;6.63;3.67;;;;;;;;;;5096137;28;20408;-76
2022/05/22 07:58:21;;;;;;;7.87;4.17;;;;;;;;;;5095968;28;20414;-77
2022/05/22 08:00:47;;;;;;;7.20;3.40;;;;;;;;;;5095874;28;20404;-74
2022/05/22 08:03:15;;;;;;;5.80;3.57;;;;;;;;;;5095680;28;20426;-76
2022/05/22 08:05:41;;;;;;;5.73;3.50;;;;;;;;;;5095959;28;20418;-77
2022/05/22 08:08:08;;;;;;;4.00;3.60;;;;;;;;;;5095955;28;20428;-76
2022/05/22 08:10:36;;;;;;;8.10;3.60;;;;;;;;;;5095841;28;20873;-76
2022/05/22 08:13:03;;;;;;;7.53;3.90;;;;;;;;;;5095665;28;20410;-76
2022/05/22 08:15:32;;;;;;;7.40;3.33;;;;;;;;;;5095704;28;20725;-77
2022/05/22 08:17:58;;;;;;;7.67;3.70;;;;;;;;;;5095781;28;20490;-77
2022/05/22 08:20:25;;;;;;;9.17;3.27;;;;;;;;;;5095717;28;20418;-75
2022/05/22 08:22:55;;;;;;;6.80;3.80;;;;;;;;;;5095379;28;20445;-74
2022/05/22 08:25:22;;;;;;;9.03;4.37;;;;;;;;;;5095556;28;20473;-76
2022/05/22 08:27:48;;;;;;;7.17;3.60;;;;;;;;;;5095789;28;20453;-75
2022/05/22 08:30:15;;;;;;;9.53;3.40;;;;;;;;;;5094078;28;20886;-78
2022/05/22 08:32:42;;;;;;;9.30;3.53;;;;;;;;;;5094068;28;20517;-77
2022/05/22 08:35:09;;;;;;;5.77;3.10;;;;;;;;;;5093735;28;20398;-76
2022/05/22 08:37:35;;;;;;;6.10;3.33;;;;;;;;;;5094180;28;20415;-76
2022/05/22 08:40:01;;;;;;;6.60;3.40;;;;;;;;;;5094125;28;20415;-78
2022/05/22 08:42:51;;;;;;;11.33;4.00;;;;;;;;;;5095193;28;20419;-77
2022/05/22 08:45:21;;;;;;;7.10;2.73;;;;;;;;;;5080933;28;20446;-77
2022/05/22 08:47:57;;;;;;;9.53;4.10;;;;;;;;;;5093141;28;20873;-77
2022/05/22 08:50:24;;;;;;;4.63;3.30;;;;;;;;;;5095089;28;20564;-76
2022/05/22 08:52:52;;;;;;;7.80;3.20;;;;;;;;;;5095199;28;20407;-76
2022/05/22 08:55:20;;;;;;;6.33;2.90;;;;;;;;;;5094946;28;20460;-76
2022/05/22 09:00:48;;;;;;;4.33;2.83;;;;;;;;;;5094945;28;20406;-76
2022/05/22 09:03:24;;;;;;;6.40;3.30;;;;;;;;;;5094475;28;20406;-75
2022/05/22 09:05:53;;;;;;;8.67;3.60;;;;;;;;;;5093478;28;20435;-75
2022/05/22 09:08:38;;;;;;;6.77;3.43;;;;;;;;;;5094739;28;20408;-74
2022/05/22 09:11:22;;;;;;;7.43;3.23;;;;;;;;;;5094316;28;20466;-74
2022/05/22 09:13:51;;;;;;;5.03;3.80;;;;;;;;;;5094378;28;20738;-76
2022/05/22 09:16:17;;;;;;;6.60;3.50;;;;;;;;;;5094913;28;20940;-78
2022/05/22 09:18:43;;;;;;;14.63;4.00;;;;;;;;;;5094642;28;20409;-75
2022/05/22 09:21:15;;;;;;;6.17;3.10;;;;;;;;;;5094835;28;20921;-76
2022/05/22 09:23:54;;;;;;;6.50;3.30;;;;;;;;;;5093143;28;20446;-76
2022/05/22 09:26:32;;;;;;;6.13;3.17;;;;;;;;;;5094443;28;20410;-73
2022/05/22 09:29:04;;;;;;;10.50;3.67;;;;;;;;;;5093489;28;20887;-76
2022/05/22 09:31:48;;;;;;;5.03;3.70;;;;;;;;;;5093957;28;20760;-75
2022/05/22 09:34:21;;;;;;;6.63;3.47;;;;;;;;;;5093979;28;20540;-77
2022/05/22 09:37:01;;;;;;;6.83;3.40;;;;;;;;;;5094370;28;20403;-76
2022/05/22 09:39:35;;;;;;;3.83;2.87;;;;;;;;;;5094267;28;20483;-76
2022/05/22 09:42:10;;;;;;;7.50;3.07;;;;;;;;;;5094459;28;20414;-78
2022/05/22 09:44:44;;;;;;;6.50;3.00;;;;;;;;;;5093806;28;20554;-76
2022/05/22 09:47:10;;;;;;;6.53;2.87;;;;;;;;;;5094169;28;20404;-76
2022/05/22 09:49:39;;;;;;;7.60;2.10;;;;;;;;;;5092619;28;21080;-74
2022/05/22 09:52:13;;;;;;;4.23;2.23;;;;;;;;;;5094067;28;20405;-75
2022/05/22 09:54:59;;;;;;;5.67;2.43;;;;;;;;;;5092322;28;20982;-74
2022/05/22 09:57:35;;;;;;;8.40;2.10;;;;;;;;;;5093788;28;20411;-75
2022/05/22 10:00:13;;;;;;;5.30;1.83;;;;;;;;;;5094023;28;20482;-75
2022/05/22 10:02:45;;;;;;;2.73;1.40;;;;;;;;;;5093876;28;20497;-74
2022/05/22 10:05:40;;;;;;;3.37;1.90;;;;;;;;;;5093439;28;20439;-77
2022/05/22 10:08:18;;;;;;;6.50;2.33;;;;;;;;;;5005109;28;20411;-76
2022/05/22 10:11:04;;;;;;;3.00;1.80;;;;;;;;;;5092418;28;20478;-76
2022/05/22 10:13:37;;;;;;;6.50;2.13;;;;;;;;;;5091985;28;20907;-78
2022/05/22 10:16:22;;;;;;;4.67;2.30;;;;;;;;;;5093544;28;20492;-75
2022/05/22 10:19:06;;;;;;;7.30;1.90;;;;;;;;;;5093484;28;20951;-76
2022/05/22 10:21:51;;;;;;;5.63;2.00;;;;;;;;;;5093387;28;20453;-74
2022/05/22 10:24:17;;;;;;;2.43;1.60;;;;;;;;;;5093054;28;20789;-76
2022/05/22 10:26:51;;;;;;;5.00;2.03;;;;;;;;;;5093469;28;20396;-76
2022/05/22 10:29:17;;;;;;;4.17;2.27;;;;;;;;;;5093745;28;20450;-77
2022/05/22 10:31:43;;;;;;;6.23;2.47;;;;;;;;;;5093395;28;20455;-79
2022/05/22 10:34:09;;;;;;;4.80;2.20;;;;;;;;;;5093005;28;20923;-77
2022/05/22 10:36:46;;;;;;;9.57;2.80;;;;;;;;;;5093700;28;20910;-73
2022/05/22 10:39:13;;;;;;;4.73;2.10;;;;;;;;;;5092118;28;20503;-74
2022/05/22 10:44:28;;;;;;;5.50;2.27;;;;;;;;;;5092887;28;20421;-74
2022/05/22 10:47:02;;;;;;;5.83;2.67;;;;;;;;;;5093377;28;20488;-76
2022/05/22 10:49:39;;;;;;;4.03;2.20;;;;;;;;;;5091836;28;20476;-75
2022/05/22 10:52:05;;;;;;;7.23;3.43;;;;;;;;;;5093026;28;20414;-77
2022/05/22 10:54:33;;;;;;;9.43;3.33;;;;;;;;;;5091638;28;20442;-78
2022/05/22 10:57:09;;;;;;;6.77;2.97;;;;;;;;;;5093221;28;20413;-75
2022/05/22 10:59:35;;;;;;;4.50;2.30;;;;;;;;;;5093130;28;20501;-74
2022/05/22 11:02:04;;;;;;;8.43;2.93;;;;;;;;;;5093123;28;20442;-75
2022/05/22 11:04:37;;;;;;;5.77;2.83;;;;;;;;;;5092704;28;20441;-73
2022/05/22 11:07:04;;;;;;;5.03;2.87;;;;;;;;;;5093148;28;20417;-74
2022/05/22 11:09:34;;;;;;;4.40;2.20;;;;;;;;;;5093777;28;20921;-77
2022/05/22 11:12:21;;;;;;;5.87;2.70;;;;;;;;;;5097162;28;20414;-74
2022/05/22 11:14:47;;;;;;;4.37;3.00;;;;;;;;;;5096935;28;20463;-75
2022/05/22 11:17:17;;;;;;;7.13;2.77;;;;;;;;;;5097206;28;20404;-75
2022/05/22 11:19:45;;;;;;;4.47;2.77;;;;;;;;;;5097260;28;20414;-75
2022/05/22 11:22:14;;;;;;;6.47;2.50;;;;;;;;;;5095811;28;20494;-76
2022/05/22 11:24:43;;;;;;;7.27;2.50;;;;;;;;;;5096456;28;20561;-77
2022/05/22 11:27:20;;;;;;;6.60;3.20;;;;;;;;;;5096901;28;20410;-75
2022/05/22 11:29:46;;;;;;;8.80;2.80;;;;;;;;;;5095740;28;20976;-74
2022/05/22 11:32:38;;;;;;;5.87;3.43;;;;;;;;;;5096667;28;20433;-79
2022/05/22 11:35:04;;;;;;;8.40;3.10;;;;;;;;;;5095339;28;20442;-77
2022/05/22 11:37:33;;;;;;;4.63;3.00;;;;;;;;;;5096844;28;20895;-76
2022/05/22 11:40:08;;;;;;;9.73;2.80;;;;;;;;;;5096729;28;20502;-77
2022/05/22 11:42:36;;;;;;;4.13;2.20;;;;;;;;;;5095996;28;20421;-77
2022/05/22 11:45:13;;;;;;;5.07;2.57;;;;;;;;;;5095998;28;20884;-78
2022/05/22 11:47:45;;;;;;;4.93;2.50;;;;;;;;;;5096476;28;20433;-78
2022/05/22 11:50:29;;;;;;;7.10;2.40;;;;;;;;;;5096572;28;20549;-79
2022/05/22 11:53:01;;;;;;;8.30;3.20;;;;;;;;;;5096246;28;20402;-77
2022/05/22 11:55:35;;;;;;;7.70;3.03;;;;;;;;;;5096459;28;20754;-76
2022/05/22 11:58:07;;;;;;;4.50;2.47;;;;;;;;;;5095203;28;20985;-78
2022/05/22 12:00:37;;;;;;;7.27;2.33;;;;;;;;;;5096212;28;20472;-78
2022/05/22 12:03:22;;;;;;;7.60;2.73;;;;;;;;;;5096076;28;20394;-78
2022/05/22 12:05:53;;;;;;;6.27;2.40;;;;;;;;;;5096086;28;20432;-79
2022/05/22 12:08:32;;;;;;;6.20;2.37;;;;;;;;;;5096083;28;20474;-78
2022/05/22 12:11:10;;;;;;;5.70;2.50;;;;;;;;;;5095963;28;20841;-75
2022/05/22 12:13:39;;;;;;;9.87;3.30;;;;;;;;;;5094411;28;20407;-77
2022/05/22 12:16:18;;;;;;;5.97;2.60;;;;;;;;;;5096239;28;20769;-77
2022/05/22 12:18:44;;;;;;;6.40;3.00;;;;;;;;;;5095713;28;20760;-76
2022/05/22 12:21:15;;;;;;;4.73;2.77;;;;;;;;;;5094531;28;20494;-79
2022/05/22 12:23:46;;;;;;;5.60;2.63;;;;;;;;;;5095685;28;20407;-78
2022/05/22 12:26:13;;;;;;;5.53;2.30;;;;;;;;;;5095829;28;20769;-77
2022/05/22 12:28:43;;;;;;;5.13;2.17;;;;;;;;;;5095741;28;20497;-78
2022/05/22 12:31:11;;;;;;;4.23;2.10;;;;;;;;;;5095379;28;20511;-78
2022/05/22 12:33:38;;;;;;;5.30;2.20;;;;;;;;;;5095209;28;20517;-79
2022/05/22 12:36:05;;;;;;;3.13;2.17;;;;;;;;;;5095899;28;20902;-78
2022/05/22 12:38:33;;;;;;;4.40;2.53;;;;;;;;;;5095822;28;20399;-77
2022/05/22 12:41:10;;;;;;;5.87;2.60;;;;;;;;;;5095556;28;20564;-79
2022/05/22 12:43:36;;;;;;;7.90;2.93;;;;;;;;;;5093887;28;20450;-76
2022/05/22 12:46:03;;;;;;;3.60;2.37;;;;;;;;;;5095523;28;20415;-77
2022/05/22 12:48:33;;;;;;;4.27;1.73;;;;;;;;;;5095597;28;20413;-78
2022/05/22 12:51:08;;;;;;;4.90;2.10;;;;;;;;;;5095126;28;20450;-78
2022/05/22 12:53:35;;;;;;;7.00;2.07;;;;;;;;;;5093740;28;20775;-77
2022/05/22 12:56:19;;;;;;;5.83;2.00;;;;;;;;;;5095263;28;20411;-77
2022/05/22 12:58:47;;;;;;;6.33;2.60;;;;;;;;;;5095188;28;20798;-76
2022/05/22 13:01:23;;;;;;;4.17;2.33;;;;;;;;;;5095123;28;20404;-79
2022/05/22 13:03:50;;;;;;;5.23;2.23;;;;;;;;;;5094637;28;20920;-78
2022/05/22 13:06:20;;;;;;;2.70;1.70;;;;;;;;;;5094941;28;20414;-79
2022/05/22 13:08:49;;;;;;;3.10;2.10;;;;;;;;;;5094792;28;20420;-76
2022/05/22 13:11:17;;;;;;;5.23;1.90;;;;;;;;;;5094675;28;20611;-80
2022/05/22 13:13:48;;;;;;;6.90;2.33;;;;;;;;;;5094477;28;20417;-74
2022/05/22 13:16:14;;;;;;;3.77;1.90;;;;;;;;;;5094826;28;20411;-77
2022/05/22 13:18:47;;;;;;;3.20;1.40;;;;;;;;;;5094847;28;20497;-77
2022/05/22 13:21:27;;;;;;;5.93;2.27;;;;;;;;;;5094626;28;20410;-76
2022/05/22 13:24:01;;;;;;;4.77;2.47;;;;;;;;;;5093332;28;20457;-77
2022/05/22 13:26:28;;;;;;;3.97;2.10;;;;;;;;;;5094958;28;20404;-77
2022/05/22 13:29:13;;;;;;;6.47;1.90;;;;;;;;;;5094834;28;20465;-78
2022/05/22 13:31:59;;;;;;;6.10;1.70;;;;;;;;;;5094495;28;20432;-77
2022/05/22 13:34:27;;;;;;;3.20;1.80;;;;;;;;;;5094321;28;20418;-78
2022/05/22 13:36:58;;;;;;;3.90;1.73;;;;;;;;;;5094440;28;20413;-77
2022/05/22 13:39:30;;;;;;;4.63;1.50;;;;;;;;;;5094259;28;20406;-77
2022/05/22 13:42:07;;;;;;;3.57;1.60;;;;;;;;;;5094579;28;20416;-78
2022/05/22 13:44:36;;;;;;;4.70;2.10;;;;;;;;;;5093865;28;20422;-77
2022/05/22 13:47:29;;;;;;;8.43;2.10;;;;;;;;;;5093052;28;20740;-78
2022/05/22 13:52:34;;;;;;;4.30;1.90;;;;;;;;;;5093992;28;20451;-77
2022/05/22 13:53:01;;;;;;;2.40;1.70;;;;;;;;;;5093937;28;20415;-77
2022/05/22 13:55:28;;;;;;;3.70;1.97;;;;;;;;;;5093585;28;20805;-73
2022/05/22 13:58:05;;;;;;;2.70;1.67;;;;;;;;;;5094102;28;20880;-75
2022/05/22 14:00:36;;;;;;;8.70;2.17;;;;;;;;;;5093903;28;20501;-75
2022/05/22 14:03:04;;;;;;;4.70;2.00;;;;;;;;;;5093554;28;20453;-75
2022/05/22 14:05:41;;;;;;;4.97;2.30;;;;;;;;;;5093547;28;20458;-74
2022/05/22 14:08:12;;;;;;;5.60;2.20;;;;;;;;;;5093763;28;20411;-74
2022/05/22 14:10:39;;;;;;;2.30;1.80;;;;;;;;;;5091968;28;20511;-76
2022/05/22 14:13:13;;;;;;;3.80;1.90;;;;;;;;;;5093238;28;20407;-73
2022/05/22 14:15:39;;;;;;;2.93;2.07;;;;;;;;;;5090841;28;20431;-77
2022/05/22 14:18:12;;;;;;;5.13;2.00;;;;;;;;;;5092872;28;20403;-77
2022/05/22 14:20:41;;;;;;;3.17;1.60;;;;;;;;;;5093211;28;20509;-78
2022/05/22 14:23:18;;;;;;;2.73;1.53;;;;;;;;;;5093156;28;20432;-74
2022/05/22 14:25:44;;;;;;;6.37;2.00;;;;;;;;;;5093740;28;20431;-76
2022/05/22 14:28:11;;;;;;;5.53;2.40;;;;;;;;;;5093386;28;20429;-76
2022/05/22 14:30:38;;;;;;;7.23;1.97;;;;;;;;;;5091908;28;20912;-75
2022/05/22 14:33:11;;;;;;;4.50;1.97;;;;;;;;;;5092809;28;20449;-79
2022/05/22 14:35:38;;;;;;;5.97;2.17;;;;;;;;;;5093004;28;20418;-79
2022/05/22 14:38:21;;;;;;;4.30;2.03;;;;;;;;;;5091652;28;20422;-77
2022/05/22 14:40:54;;;;;;;4.37;2.13;;;;;;;;;;5093208;28;20403;-76
2022/05/22 14:43:22;;;;;;;3.37;2.00;;;;;;;;;;5092609;28;20418;-76
2022/05/22 14:45:54;;;;;;;3.80;2.20;;;;;;;;;;5086241;28;20427;-77
2022/05/22 14:48:23;;;;;;;4.67;2.20;;;;;;;;;;5093161;28;20407;-78
2022/05/22 14:50:51;;;;;;;6.40;1.90;;;;;;;;;;5092889;28;20473;-76
2022/05/22 14:53:37;;;;;;;4.13;2.00;;;;;;;;;;5092628;28;20417;-75
2022/05/22 14:56:23;;;;;;;3.00;2.13;;;;;;;;;;5088885;28;20403;-76
2022/05/22 14:58:50;;;;;;;3.70;1.67;;;;;;;;;;5080989;28;20415;-76
2022/05/22 15:01:19;;;;;;;7.27;1.70;;;;;;;;;;5076651;28;20408;-75
2022/05/22 15:03:47;;;;;;;6.30;2.20;;;;;;;;;;5070791;28;20427;-78